Time;durP1;ratioP1;P1;durP2;ratioP2;P2;SDS_P1;SDS_P2;PMS_P1;PMS_P2;Temp;Humidity;BMP_temperature;BMP_pressure;BME280_temperature;BME280_humidity;BME280_pressure;Samples;Min_cycle;Max_cycle;Signal;HPM_P1;HPM_P2
2023/06/28 00:00:38;;;;;;;14.60;8.90;;;;;;;;;;5063618;28;20791;-73
2023/06/28 00:03:04;;;;;;;14.27;8.95;;;;;;;;;;5060975;28;20241;-73
2023/06/28 00:05:30;;;;;;;13.60;8.23;;;;;;;;;;5043233;28;20258;-73
2023/06/28 00:07:55;;;;;;;13.10;8.07;;;;;;;;;;5056638;28;20224;-72
2023/06/28 00:10:20;;;;;;;13.48;7.95;;;;;;;;;;5060218;28;20230;-73
2023/06/28 00:12:46;;;;;;;17.15;8.20;;;;;;;;;;5064833;28;20239;-73
2023/06/28 00:15:11;;;;;;;14.57;8.67;;;;;;;;;;5061683;28;20227;-73
2023/06/28 00:17:37;;;;;;;11.77;8.20;;;;;;;;;;5060971;28;20259;-73
2023/06/28 00:20:07;;;;;;;13.15;8.00;;;;;;;;;;5059340;28;20778;-72
2023/06/28 00:22:32;;;;;;;13.43;8.52;;;;;;;;;;5060271;28;20856;-72
2023/06/28 00:25:04;;;;;;;13.52;7.85;;;;;;;;;;5044708;28;20303;-73
2023/06/28 00:27:29;;;;;;;12.65;7.88;;;;;;;;;;5044056;28;20775;-73
2023/06/28 00:29:55;;;;;;;13.73;7.93;;;;;;;;;;5061495;28;20213;-73
2023/06/28 00:32:21;;;;;;;14.07;8.10;;;;;;;;;;5045177;28;20217;-72
2023/06/28 00:34:46;;;;;;;14.05;8.48;;;;;;;;;;5039917;28;20226;-72
2023/06/28 00:37:11;;;;;;;16.60;8.40;;;;;;;;;;5042007;28;20362;-73
2023/06/28 00:39:37;;;;;;;13.73;8.27;;;;;;;;;;5062147;28;20216;-73
2023/06/28 00:42:02;;;;;;;12.27;8.77;;;;;;;;;;5061016;28;20303;-72
2023/06/28 00:44:27;;;;;;;14.90;8.63;;;;;;;;;;5042661;28;20240;-74
2023/06/28 00:46:52;;;;;;;12.30;8.70;;;;;;;;;;5059517;28;20213;-72
2023/06/28 00:49:18;;;;;;;14.67;8.70;;;;;;;;;;5059478;28;20228;-72
2023/06/28 00:51:43;;;;;;;12.50;8.50;;;;;;;;;;5061264;28;20274;-73
2023/06/28 00:54:09;;;;;;;15.93;8.60;;;;;;;;;;5046924;28;20212;-72
2023/06/28 00:56:35;;;;;;;14.97;8.40;;;;;;;;;;5058028;28;20220;-72
2023/06/28 00:59:01;;;;;;;12.80;8.68;;;;;;;;;;5058111;28;20221;-72
2023/06/28 01:01:26;;;;;;;16.20;8.10;;;;;;;;;;5060183;28;20709;-70
2023/06/28 01:03:53;;;;;;;15.77;8.67;;;;;;;;;;5059319;28;20250;-72
2023/06/28 01:06:18;;;;;;;12.52;7.80;;;;;;;;;;5056657;28;20268;-72
2023/06/28 01:08:44;;;;;;;12.87;8.20;;;;;;;;;;5058344;28;20764;-73
2023/06/28 01:11:09;;;;;;;10.33;7.73;;;;;;;;;;5042287;28;20224;-73
2023/06/28 01:13:35;;;;;;;13.47;8.23;;;;;;;;;;5041926;28;20232;-73
2023/06/28 01:16:00;;;;;;;12.97;8.80;;;;;;;;;;5058818;28;20267;-73
2023/06/28 01:18:25;;;;;;;16.10;8.37;;;;;;;;;;5058828;28;20217;-73
2023/06/28 01:20:54;;;;;;;12.07;8.33;;;;;;;;;;5063766;28;20232;-73
2023/06/28 01:23:19;;;;;;;13.10;8.53;;;;;;;;;;5040438;28;20289;-72
2023/06/28 01:25:45;;;;;;;12.07;8.30;;;;;;;;;;5045953;28;20220;-73
2023/06/28 01:28:10;;;;;;;11.93;8.50;;;;;;;;;;5056694;28;20224;-73
2023/06/28 01:30:37;;;;;;;13.07;8.53;;;;;;;;;;5039924;28;20228;-72
2023/06/28 01:33:02;;;;;;;12.67;8.80;;;;;;;;;;5037296;28;20219;-73
2023/06/28 01:35:29;;;;;;;15.97;8.60;;;;;;;;;;5056781;28;20208;-74
2023/06/28 01:37:54;;;;;;;14.10;8.40;;;;;;;;;;5041620;28;20216;-73
2023/06/28 01:40:20;;;;;;;12.27;8.50;;;;;;;;;;5055686;28;20227;-71
2023/06/28 01:42:45;;;;;;;13.60;8.57;;;;;;;;;;5057066;28;20265;-73
2023/06/28 01:45:10;;;;;;;13.23;8.73;;;;;;;;;;5037448;28;20274;-72
2023/06/28 01:47:35;;;;;;;16.50;8.80;;;;;;;;;;5054903;28;20225;-72
2023/06/28 01:50:01;;;;;;;11.57;8.07;;;;;;;;;;5058385;28;20240;-73
2023/06/28 01:52:26;;;;;;;18.27;9.17;;;;;;;;;;5048705;28;20305;-72
2023/06/28 01:54:51;;;;;;;11.23;8.47;;;;;;;;;;5053562;28;20221;-73
2023/06/28 01:57:16;;;;;;;14.40;8.53;;;;;;;;;;5038335;28;20217;-73
2023/06/28 01:59:42;;;;;;;12.60;9.30;;;;;;;;;;5054001;28;20319;-73
2023/06/28 02:02:07;;;;;;;14.40;9.43;;;;;;;;;;5051940;28;20221;-73
2023/06/28 02:04:32;;;;;;;14.53;9.77;;;;;;;;;;5055527;28;20621;-73
2023/06/28 02:06:58;;;;;;;14.97;9.93;;;;;;;;;;5038713;28;20325;-72
2023/06/28 02:09:23;;;;;;;16.43;10.47;;;;;;;;;;5056080;28;20302;-73
2023/06/28 02:11:48;;;;;;;13.30;10.17;;;;;;;;;;5057398;28;20253;-73
2023/06/28 02:14:14;;;;;;;14.40;10.63;;;;;;;;;;5055582;28;20251;-73
2023/06/28 02:16:41;;;;;;;13.73;10.30;;;;;;;;;;5053244;28;20611;-72
2023/06/28 02:19:06;;;;;;;16.43;10.73;;;;;;;;;;5063084;28;20217;-73
2023/06/28 02:21:31;;;;;;;15.57;10.70;;;;;;;;;;5041061;28;20692;-73
2023/06/28 02:23:56;;;;;;;15.03;11.10;;;;;;;;;;5058195;28;20259;-72
2023/06/28 02:26:22;;;;;;;14.80;10.70;;;;;;;;;;5059151;28;20278;-73
2023/06/28 02:28:47;;;;;;;16.50;11.33;;;;;;;;;;5061475;28;20233;-73
2023/06/28 02:31:12;;;;;;;15.77;11.73;;;;;;;;;;5061332;28;20231;-72
2023/06/28 02:33:37;;;;;;;17.13;11.43;;;;;;;;;;5063363;28;20358;-73
2023/06/28 02:36:03;;;;;;;18.93;12.40;;;;;;;;;;5059112;28;20220;-73
2023/06/28 02:38:28;;;;;;;20.63;13.23;;;;;;;;;;5061413;28;20300;-74
2023/06/28 02:40:53;;;;;;;17.80;12.63;;;;;;;;;;5060869;28;20217;-74
2023/06/28 02:43:19;;;;;;;19.17;12.93;;;;;;;;;;5061498;28;20298;-73
2023/06/28 02:45:44;;;;;;;18.70;12.90;;;;;;;;;;5045370;28;20225;-73
2023/06/28 02:48:09;;;;;;;17.90;12.60;;;;;;;;;;5060410;28;20757;-73
2023/06/28 02:50:34;;;;;;;18.43;12.00;;;;;;;;;;5060707;28;20736;-73
2023/06/28 02:53:00;;;;;;;16.33;12.20;;;;;;;;;;5060721;28;20724;-73
2023/06/28 02:55:25;;;;;;;16.47;12.57;;;;;;;;;;5055287;28;20726;-72
2023/06/28 02:57:50;;;;;;;16.17;12.83;;;;;;;;;;5058357;28;20217;-73
2023/06/28 03:00:16;;;;;;;17.30;12.47;;;;;;;;;;5057439;28;20236;-73
2023/06/28 03:02:41;;;;;;;17.40;12.30;;;;;;;;;;5060762;28;20321;-73
2023/06/28 03:05:07;;;;;;;17.87;12.47;;;;;;;;;;5060555;28;20693;-73
2023/06/28 03:07:32;;;;;;;17.40;12.10;;;;;;;;;;5065800;28;20603;-76
2023/06/28 03:09:57;;;;;;;16.87;11.70;;;;;;;;;;5063286;28;20256;-76
2023/06/28 03:12:22;;;;;;;16.47;12.17;;;;;;;;;;5049363;28;20217;-76
2023/06/28 03:14:48;;;;;;;20.37;12.60;;;;;;;;;;5047686;28;20612;-75
2023/06/28 03:17:13;;;;;;;16.37;12.13;;;;;;;;;;5061945;28;20244;-75
2023/06/28 03:19:39;;;;;;;16.83;12.67;;;;;;;;;;5060031;28;20701;-76
2023/06/28 03:22:04;;;;;;;19.20;12.60;;;;;;;;;;5062142;28;20679;-76
2023/06/28 03:24:29;;;;;;;20.10;13.00;;;;;;;;;;5061207;28;20238;-76
2023/06/28 03:26:55;;;;;;;19.43;13.20;;;;;;;;;;5042986;28;20233;-75
2023/06/28 03:29:20;;;;;;;20.37;13.23;;;;;;;;;;5044275;28;20220;-75
2023/06/28 03:31:45;;;;;;;21.07;13.60;;;;;;;;;;5062808;28;20304;-76
2023/06/28 03:34:11;;;;;;;18.27;13.63;;;;;;;;;;5066746;28;20220;-77
2023/06/28 03:36:36;;;;;;;17.50;13.10;;;;;;;;;;5060456;28;20236;-76
2023/06/28 03:39:01;;;;;;;21.60;13.87;;;;;;;;;;5051484;28;20227;-76
2023/06/28 03:41:27;;;;;;;25.47;13.90;;;;;;;;;;5043066;28;20235;-76
2023/06/28 03:43:52;;;;;;;18.37;13.63;;;;;;;;;;5050944;28;20240;-76
2023/06/28 03:46:17;;;;;;;19.83;13.90;;;;;;;;;;5047654;28;20279;-76
2023/06/28 03:48:43;;;;;;;20.03;13.53;;;;;;;;;;5062541;28;20677;-76
2023/06/28 03:51:08;;;;;;;20.97;13.67;;;;;;;;;;5058975;28;20213;-75
2023/06/28 03:53:33;;;;;;;18.20;13.00;;;;;;;;;;5064267;28;20241;-75
2023/06/28 03:55:58;;;;;;;19.20;13.70;;;;;;;;;;5063306;28;20689;-76
2023/06/28 03:58:24;;;;;;;20.43;14.17;;;;;;;;;;5065728;28;20228;-76
2023/06/28 04:00:49;;;;;;;17.80;13.83;;;;;;;;;;5064283;28;20278;-76
2023/06/28 04:03:15;;;;;;;20.17;14.27;;;;;;;;;;5065123;28;20233;-76
2023/06/28 04:05:41;;;;;;;22.37;15.10;;;;;;;;;;5045647;28;20397;-77
2023/06/28 04:08:08;;;;;;;19.50;14.70;;;;;;;;;;5064223;28;20592;-76
2023/06/28 04:10:34;;;;;;;20.83;15.53;;;;;;;;;;5046807;28;20278;-76
2023/06/28 04:12:59;;;;;;;22.23;15.17;;;;;;;;;;5063060;28;20229;-76
2023/06/28 04:15:24;;;;;;;25.73;15.47;;;;;;;;;;5059051;28;20224;-75
2023/06/28 04:17:50;;;;;;;20.10;14.97;;;;;;;;;;5041726;28;20232;-76
2023/06/28 04:20:15;;;;;;;24.17;16.03;;;;;;;;;;5059704;28;20665;-77
2023/06/28 04:22:40;;;;;;;22.53;15.80;;;;;;;;;;5061715;28;20237;-76
2023/06/28 04:25:06;;;;;;;21.10;15.30;;;;;;;;;;5062726;28;20218;-76
2023/06/28 04:27:31;;;;;;;23.93;15.57;;;;;;;;;;5044929;28;20255;-76
2023/06/28 04:29:56;;;;;;;20.80;15.00;;;;;;;;;;5060112;28;20224;-76
2023/06/28 04:32:23;;;;;;;20.83;14.83;;;;;;;;;;5065986;28;20236;-76
2023/06/28 04:34:49;;;;;;;22.53;15.37;;;;;;;;;;5061236;28;20253;-76
2023/06/28 04:37:15;;;;;;;21.97;15.80;;;;;;;;;;5064865;28;20232;-76
2023/06/28 04:39:40;;;;;;;26.37;16.13;;;;;;;;;;5063913;28;20226;-75
2023/06/28 04:42:05;;;;;;;24.03;16.03;;;;;;;;;;5053548;28;20227;-77
2023/06/28 04:44:36;;;;;;;23.20;16.53;;;;;;;;;;5065242;28;20232;-75
2023/06/28 04:47:02;;;;;;;24.40;16.07;;;;;;;;;;5054441;28;20308;-77
2023/06/28 04:49:28;;;;;;;24.23;16.50;;;;;;;;;;5040459;28;20228;-76
2023/06/28 04:51:54;;;;;;;21.93;15.90;;;;;;;;;;5057603;28;20225;-75
2023/06/28 04:54:19;;;;;;;21.73;16.07;;;;;;;;;;5070103;28;20219;-76
2023/06/28 04:56:45;;;;;;;21.50;15.83;;;;;;;;;;5042827;28;20229;-76
2023/06/28 04:59:10;;;;;;;25.70;16.60;;;;;;;;;;5059263;28;20616;-76
2023/06/28 05:01:37;;;;;;;24.00;15.93;;;;;;;;;;5056406;28;20304;-75
2023/06/28 05:04:03;;;;;;;26.07;15.87;;;;;;;;;;5055439;28;20220;-76
2023/06/28 05:06:29;;;;;;;23.40;15.70;;;;;;;;;;5061776;28;20220;-78
2023/06/28 05:08:54;;;;;;;23.90;15.83;;;;;;;;;;5059284;28;20220;-78
2023/06/28 05:11:19;;;;;;;21.90;15.20;;;;;;;;;;5059005;28;20315;-75
2023/06/28 05:13:45;;;;;;;23.03;15.57;;;;;;;;;;5059911;28;20231;-75
2023/06/28 05:16:10;;;;;;;20.80;15.13;;;;;;;;;;5048656;28;20245;-77
2023/06/28 05:18:35;;;;;;;22.10;15.30;;;;;;;;;;5060809;28;20223;-79
2023/06/28 05:21:01;;;;;;;22.13;15.73;;;;;;;;;;5060746;28;20229;-77
2023/06/28 05:23:26;;;;;;;26.33;16.50;;;;;;;;;;5048651;28;20224;-77
2023/06/28 05:25:51;;;;;;;26.67;15.67;;;;;;;;;;5064304;28;20822;-80
2023/06/28 05:28:17;;;;;;;24.87;16.27;;;;;;;;;;5055273;28;20221;-78
2023/06/28 05:30:42;;;;;;;25.37;17.17;;;;;;;;;;5058554;28;20244;-80
2023/06/28 05:33:08;;;;;;;24.37;16.97;;;;;;;;;;5045517;28;20575;-78
2023/06/28 05:35:36;;;;;;;26.57;17.37;;;;;;;;;;5062301;28;20296;-80
2023/06/28 05:38:01;;;;;;;23.38;17.02;;;;;;;;;;5048022;28;20221;-80
2023/06/28 05:40:27;;;;;;;25.55;16.98;;;;;;;;;;5057807;28;20668;-81
2023/06/28 05:42:53;;;;;;;26.93;17.17;;;;;;;;;;5060516;28;20267;-84
2023/06/28 05:45:19;;;;;;;25.17;17.85;;;;;;;;;;5056474;28;20653;-80
2023/06/28 05:47:44;;;;;;;26.02;17.95;;;;;;;;;;5056174;28;20212;-79
2023/06/28 05:50:10;;;;;;;23.73;17.15;;;;;;;;;;5060925;28;20212;-81
2023/06/28 05:52:35;;;;;;;26.57;17.90;;;;;;;;;;5037699;28;20248;-81
2023/06/28 05:55:01;;;;;;;26.90;17.88;;;;;;;;;;5059827;28;20689;-80
2023/06/28 05:57:26;;;;;;;27.63;18.80;;;;;;;;;;5064034;28;20255;-78
2023/06/28 05:59:51;;;;;;;27.88;18.58;;;;;;;;;;5056453;28;20224;-79
2023/06/28 06:02:17;;;;;;;28.15;19.05;;;;;;;;;;5064976;28;20251;-77
2023/06/28 06:04:42;;;;;;;28.40;19.48;;;;;;;;;;5058447;28;20213;-77
2023/06/28 06:07:07;;;;;;;28.95;19.75;;;;;;;;;;5061394;28;20278;-80
2023/06/28 06:09:33;;;;;;;27.77;19.73;;;;;;;;;;5056431;28;20265;-78
2023/06/28 06:11:58;;;;;;;26.65;19.50;;;;;;;;;;5057472;28;20232;-79
2023/06/28 06:14:23;;;;;;;28.95;20.15;;;;;;;;;;5055772;28;20597;-82
2023/06/28 06:16:49;;;;;;;28.10;19.70;;;;;;;;;;5043658;28;20224;-79
2023/06/28 06:19:14;;;;;;;27.67;19.00;;;;;;;;;;5055134;28;20221;-79
2023/06/28 06:21:40;;;;;;;27.52;18.45;;;;;;;;;;5041448;28;20229;-80
2023/06/28 06:24:07;;;;;;;27.08;18.38;;;;;;;;;;5059855;28;20692;-79
2023/06/28 06:26:35;;;;;;;26.52;18.48;;;;;;;;;;5044675;28;20243;-77
2023/06/28 06:29:01;;;;;;;27.33;17.48;;;;;;;;;;5044274;28;20278;-80
2023/06/28 06:31:27;;;;;;;27.75;17.35;;;;;;;;;;5052104;28;20225;-76
2023/06/28 06:33:52;;;;;;;26.65;17.65;;;;;;;;;;5055341;28;20304;-77
2023/06/28 06:36:17;;;;;;;26.20;17.60;;;;;;;;;;5059467;28;20220;-73
2023/06/28 06:38:42;;;;;;;24.40;16.88;;;;;;;;;;5039851;28;20234;-76
2023/06/28 06:41:08;;;;;;;23.08;16.92;;;;;;;;;;5059292;28;20225;-76
2023/06/28 06:43:33;;;;;;;25.48;17.00;;;;;;;;;;5056519;28;20255;-75
2023/06/28 06:45:58;;;;;;;24.48;17.23;;;;;;;;;;5043096;28;20217;-75
2023/06/28 06:48:24;;;;;;;24.98;16.17;;;;;;;;;;5047166;28;20224;-75
2023/06/28 06:50:49;;;;;;;24.27;16.38;;;;;;;;;;5058391;28;21008;-76
2023/06/28 06:53:15;;;;;;;23.50;16.30;;;;;;;;;;5046436;28;20218;-74
2023/06/28 06:55:40;;;;;;;21.50;16.23;;;;;;;;;;5060813;28;20213;-76
2023/06/28 06:58:05;;;;;;;22.70;15.80;;;;;;;;;;5062190;28;20270;-77
2023/06/28 07:00:30;;;;;;;21.42;15.43;;;;;;;;;;5061740;28;20292;-77
2023/06/28 07:02:56;;;;;;;26.27;15.45;;;;;;;;;;5042240;28;20240;-77
2023/06/28 07:05:21;;;;;;;25.63;15.70;;;;;;;;;;5066048;28;20649;-77
2023/06/28 07:07:46;;;;;;;23.38;15.60;;;;;;;;;;5069761;28;20224;-76
2023/06/28 07:10:12;;;;;;;23.25;15.70;;;;;;;;;;5062200;28;20220;-76
2023/06/28 07:12:37;;;;;;;25.98;15.68;;;;;;;;;;5044886;28;20232;-75
2023/06/28 07:15:02;;;;;;;20.85;14.95;;;;;;;;;;5064725;28;20224;-78
2023/06/28 07:17:28;;;;;;;22.05;15.20;;;;;;;;;;5061547;28;20300;-77
2023/06/28 07:19:53;;;;;;;23.90;15.32;;;;;;;;;;5062652;28;20366;-75
2023/06/28 07:22:19;;;;;;;27.42;16.15;;;;;;;;;;5058719;28;20213;-77
2023/06/28 07:24:44;;;;;;;20.52;14.73;;;;;;;;;;5064779;28;20259;-76
2023/06/28 07:27:09;;;;;;;22.30;15.60;;;;;;;;;;5064076;28;20216;-77
2023/06/28 07:29:35;;;;;;;20.38;14.43;;;;;;;;;;5045591;28;20308;-75
2023/06/28 07:32:01;;;;;;;22.80;14.45;;;;;;;;;;5060893;28;20223;-77
2023/06/28 07:34:26;;;;;;;25.38;14.45;;;;;;;;;;5043916;28;20229;-77
2023/06/28 07:36:51;;;;;;;20.92;13.63;;;;;;;;;;5062052;28;20231;-76
2023/06/28 07:39:16;;;;;;;21.95;13.60;;;;;;;;;;5060631;28;20236;-78
2023/06/28 07:41:42;;;;;;;18.08;13.10;;;;;;;;;;5061654;28;20884;-76
2023/06/28 07:44:07;;;;;;;19.95;13.35;;;;;;;;;;5066576;28;20233;-75
2023/06/28 07:46:32;;;;;;;18.80;13.07;;;;;;;;;;5067414;28;20217;-75
2023/06/28 07:48:59;;;;;;;19.33;12.40;;;;;;;;;;5063436;28;21825;-75
2023/06/28 07:51:25;;;;;;;19.52;12.90;;;;;;;;;;5042658;28;20232;-75
2023/06/28 07:53:50;;;;;;;19.90;12.52;;;;;;;;;;5042064;28;20280;-76
2023/06/28 07:56:16;;;;;;;20.02;12.48;;;;;;;;;;5060657;28;20228;-77
2023/06/28 07:58:41;;;;;;;22.52;12.90;;;;;;;;;;5042658;28;20221;-75
2023/06/28 08:01:07;;;;;;;25.63;12.82;;;;;;;;;;5058291;28;20220;-77
2023/06/28 08:03:32;;;;;;;21.33;12.35;;;;;;;;;;5059166;28;20229;-76
2023/06/28 08:05:57;;;;;;;21.00;12.70;;;;;;;;;;5069377;28;20244;-77
2023/06/28 08:08:23;;;;;;;20.77;12.55;;;;;;;;;;5060018;28;20212;-75
2023/06/28 08:10:48;;;;;;;16.55;11.77;;;;;;;;;;5052411;28;20221;-75
2023/06/28 08:13:13;;;;;;;17.98;12.10;;;;;;;;;;5056216;28;20235;-76
2023/06/28 08:15:39;;;;;;;16.90;11.10;;;;;;;;;;5044010;28;20212;-75
2023/06/28 08:18:06;;;;;;;17.45;11.23;;;;;;;;;;5059900;28;20218;-77
2023/06/28 08:20:31;;;;;;;18.05;11.60;;;;;;;;;;5060808;28;20224;-76
2023/06/28 08:22:59;;;;;;;20.17;11.07;;;;;;;;;;5054493;28;20926;-75
2023/06/28 08:25:24;;;;;;;16.75;10.65;;;;;;;;;;5062695;28;20311;-76
2023/06/28 08:27:49;;;;;;;18.10;11.02;;;;;;;;;;5061661;28;20334;-74
2023/06/28 08:30:15;;;;;;;19.98;11.45;;;;;;;;;;5063702;28;20224;-75
2023/06/28 08:32:40;;;;;;;17.58;11.50;;;;;;;;;;5041861;28;20270;-76
2023/06/28 08:35:06;;;;;;;19.30;11.50;;;;;;;;;;5065024;28;20217;-74
2023/06/28 08:37:34;;;;;;;15.60;10.95;;;;;;;;;;5062482;28;20662;-74
2023/06/28 08:39:59;;;;;;;16.35;11.10;;;;;;;;;;5060882;28;20228;-76
2023/06/28 08:42:24;;;;;;;18.90;11.45;;;;;;;;;;5061697;28;20668;-75
2023/06/28 08:44:50;;;;;;;17.55;10.90;;;;;;;;;;5062568;28;20689;-77
2023/06/28 08:47:15;;;;;;;17.23;11.55;;;;;;;;;;5048314;28;20729;-75
2023/06/28 08:49:40;;;;;;;20.13;11.90;;;;;;;;;;5060306;28;20217;-75
2023/06/28 08:52:06;;;;;;;18.73;11.55;;;;;;;;;;5059962;28;20598;-75
2023/06/28 08:54:31;;;;;;;15.50;11.60;;;;;;;;;;5063335;28;20294;-76
2023/06/28 08:56:56;;;;;;;16.67;11.27;;;;;;;;;;5060686;28;20225;-77
2023/06/28 08:59:22;;;;;;;17.17;11.40;;;;;;;;;;5048470;28;20220;-75
2023/06/28 09:01:47;;;;;;;18.20;11.70;;;;;;;;;;5061879;28;20739;-76
2023/06/28 09:04:12;;;;;;;17.98;11.77;;;;;;;;;;5065331;28;20243;-76
2023/06/28 09:06:38;;;;;;;18.67;11.27;;;;;;;;;;5061254;28;20229;-78
2023/06/28 09:09:03;;;;;;;15.48;10.95;;;;;;;;;;5062405;28;20225;-74
2023/06/28 09:11:28;;;;;;;18.52;11.20;;;;;;;;;;5057859;28;20289;-75
2023/06/28 09:13:54;;;;;;;17.58;11.38;;;;;;;;;;5061549;28;21151;-75
2023/06/28 09:16:20;;;;;;;15.25;10.88;;;;;;;;;;5061729;28;20224;-76
2023/06/28 09:18:46;;;;;;;15.32;11.13;;;;;;;;;;5047748;28;20743;-75
2023/06/28 09:21:12;;;;;;;17.52;11.15;;;;;;;;;;5057446;28;20224;-74
2023/06/28 09:23:40;;;;;;;17.10;10.85;;;;;;;;;;5057455;28;20312;-76
2023/06/28 09:26:08;;;;;;;17.33;11.60;;;;;;;;;;5061285;28;20228;-77
2023/06/28 09:28:33;;;;;;;17.33;10.98;;;;;;;;;;5061345;28;20212;-75
2023/06/28 09:30:59;;;;;;;17.67;10.88;;;;;;;;;;5056707;28;20231;-75
2023/06/28 09:33:24;;;;;;;15.68;10.48;;;;;;;;;;5058801;28;20228;-75
2023/06/28 09:35:59;;;;;;;16.90;10.65;;;;;;;;;;5044391;28;20220;-75
2023/06/28 09:38:25;;;;;;;15.25;10.48;;;;;;;;;;5054690;28;20273;-75
2023/06/28 09:41:00;;;;;;;17.23;10.73;;;;;;;;;;5062150;28;20224;-75
2023/06/28 09:43:32;;;;;;;15.65;10.70;;;;;;;;;;5047314;28;20324;-77
2023/06/28 09:45:58;;;;;;;17.65;10.55;;;;;;;;;;5059550;28;20227;-75
2023/06/28 09:48:25;;;;;;;17.40;11.07;;;;;;;;;;5042935;28;20212;-77
2023/06/28 09:50:50;;;;;;;17.60;10.70;;;;;;;;;;5058339;28;20218;-74
2023/06/28 09:53:19;;;;;;;17.00;11.00;;;;;;;;;;5039898;28;20262;-76
2023/06/28 09:55:45;;;;;;;16.38;11.02;;;;;;;;;;5056277;28;20255;-79
2023/06/28 09:58:11;;;;;;;15.27;10.88;;;;;;;;;;5058693;28;20213;-75
2023/06/28 10:00:39;;;;;;;14.90;10.60;;;;;;;;;;5064067;28;20225;-77
2023/06/28 10:03:06;;;;;;;15.02;10.93;;;;;;;;;;5059842;28;20229;-76
2023/06/28 10:05:31;;;;;;;16.50;11.00;;;;;;;;;;5061438;28;20224;-75
2023/06/28 10:07:57;;;;;;;14.70;11.13;;;;;;;;;;5058128;28;20274;-75
2023/06/28 10:10:22;;;;;;;15.30;10.88;;;;;;;;;;5043161;28;20232;-76
2023/06/28 10:12:49;;;;;;;17.20;11.05;;;;;;;;;;5060451;28;20222;-76
2023/06/28 10:15:15;;;;;;;15.50;10.90;;;;;;;;;;5039515;28;20585;-75
2023/06/28 10:17:41;;;;;;;16.80;10.95;;;;;;;;;;5041833;28;20229;-75
2023/06/28 10:20:07;;;;;;;19.95;11.05;;;;;;;;;;5040174;28;20323;-77
2023/06/28 10:22:32;;;;;;;17.08;11.32;;;;;;;;;;5059110;28;20244;-77
2023/06/28 10:24:58;;;;;;;19.38;11.23;;;;;;;;;;5056134;28;20781;-76
2023/06/28 10:27:23;;;;;;;18.05;11.35;;;;;;;;;;5039737;28;20309;-77
2023/06/28 10:29:49;;;;;;;18.67;10.45;;;;;;;;;;5054857;28;20703;-76
2023/06/28 10:32:14;;;;;;;16.67;11.27;;;;;;;;;;5042234;28;20264;-76
2023/06/28 10:34:40;;;;;;;21.20;10.93;;;;;;;;;;5042028;28;20205;-76
2023/06/28 10:37:05;;;;;;;17.42;10.85;;;;;;;;;;5062255;28;20221;-76
2023/06/28 10:39:31;;;;;;;17.48;11.35;;;;;;;;;;5066746;28;20981;-75
2023/06/28 10:41:57;;;;;;;14.18;10.70;;;;;;;;;;5041343;28;20241;-77
2023/06/28 10:44:22;;;;;;;17.92;11.57;;;;;;;;;;5062467;28;20233;-76
2023/06/28 10:46:50;;;;;;;15.70;11.23;;;;;;;;;;5062619;28;20235;-75
2023/06/28 10:49:16;;;;;;;14.63;10.80;;;;;;;;;;5061683;28;20777;-75
2023/06/28 10:51:44;;;;;;;15.13;11.30;;;;;;;;;;5049550;28;20729;-76
2023/06/28 10:54:10;;;;;;;15.23;11.20;;;;;;;;;;5063199;28;20213;-78
2023/06/28 10:56:37;;;;;;;15.10;11.07;;;;;;;;;;5048644;28;20218;-77
2023/06/28 10:59:04;;;;;;;13.60;10.52;;;;;;;;;;5059099;28;20226;-75
2023/06/28 11:01:53;;;;;;;17.65;10.60;;;;;;;;;;5057738;28;20220;-75
2023/06/28 11:04:22;;;;;;;15.35;10.38;;;;;;;;;;5063823;28;20255;-77
2023/06/28 11:06:47;;;;;;;15.75;9.75;;;;;;;;;;5052290;28;21119;-75
2023/06/28 11:09:16;;;;;;;17.30;9.95;;;;;;;;;;5042625;28;20280;-75
2023/06/28 11:11:52;;;;;;;16.30;9.55;;;;;;;;;;5059083;28;20295;-75
2023/06/28 11:14:29;;;;;;;15.55;9.82;;;;;;;;;;5059936;28;20221;-76
2023/06/28 11:17:01;;;;;;;15.55;10.32;;;;;;;;;;5044588;28;20217;-76
2023/06/28 11:19:27;;;;;;;15.50;10.02;;;;;;;;;;5067279;28;20208;-75
2023/06/28 11:21:56;;;;;;;15.80;9.73;;;;;;;;;;5058997;28;20322;-75
2023/06/28 11:24:34;;;;;;;14.65;9.20;;;;;;;;;;5059103;28;20228;-74
2023/06/28 11:27:02;;;;;;;16.55;9.75;;;;;;;;;;5061950;28;20220;-76
2023/06/28 11:29:28;;;;;;;15.70;9.32;;;;;;;;;;5060520;28;20216;-75
2023/06/28 11:31:56;;;;;;;12.02;8.93;;;;;;;;;;5037504;28;20236;-75
2023/06/28 11:34:22;;;;;;;13.10;9.32;;;;;;;;;;5061874;28;20212;-74
2023/06/28 11:36:51;;;;;;;15.80;9.98;;;;;;;;;;5043646;28;20291;-76
2023/06/28 11:39:17;;;;;;;13.45;9.10;;;;;;;;;;5047972;28;20233;-76
2023/06/28 11:41:42;;;;;;;16.58;9.38;;;;;;;;;;5047378;28;20223;-75
2023/06/28 11:44:09;;;;;;;23.67;13.18;;;;;;;;;;5045178;28;20232;-76
2023/06/28 11:46:34;;;;;;;16.05;8.35;;;;;;;;;;5060400;28;20213;-77
2023/06/28 11:49:00;;;;;;;13.27;7.90;;;;;;;;;;5061388;28;20302;-76
2023/06/28 11:51:25;;;;;;;21.38;7.90;;;;;;;;;;5046972;28;20760;-76
2023/06/28 11:53:50;;;;;;;13.48;8.52;;;;;;;;;;5061851;28;20603;-77
2023/06/28 11:56:16;;;;;;;15.77;7.95;;;;;;;;;;5045859;28;20219;-76
2023/06/28 11:58:41;;;;;;;12.45;7.75;;;;;;;;;;5061456;28;20233;-76
2023/06/28 12:01:17;;;;;;;12.25;7.40;;;;;;;;;;5045195;28;20213;-77
2023/06/28 12:03:43;;;;;;;11.27;7.40;;;;;;;;;;5062841;28;20243;-77
2023/06/28 12:06:12;;;;;;;10.98;7.45;;;;;;;;;;5062714;28;20689;-76
2023/06/28 12:08:37;;;;;;;13.23;7.40;;;;;;;;;;5044828;28;20220;-76
2023/06/28 12:11:15;;;;;;;12.02;7.03;;;;;;;;;;5047585;28;20246;-76
2023/06/28 12:13:41;;;;;;;13.20;7.57;;;;;;;;;;5045173;28;20232;-76
2023/06/28 12:16:13;;;;;;;13.20;7.20;;;;;;;;;;5062313;28;20223;-76
2023/06/28 12:18:54;;;;;;;14.88;6.82;;;;;;;;;;5042608;28;20282;-76
2023/06/28 12:21:21;;;;;;;11.43;6.65;;;;;;;;;;5062863;28;20217;-77
2023/06/28 12:23:46;;;;;;;11.23;6.93;;;;;;;;;;5062793;28;20243;-76
2023/06/28 12:26:12;;;;;;;11.63;6.38;;;;;;;;;;5063605;28;20209;-75
2023/06/28 12:28:37;;;;;;;12.30;6.32;;;;;;;;;;5065030;28;20228;-76
2023/06/28 12:31:02;;;;;;;10.63;6.60;;;;;;;;;;5045178;28;20220;-76
2023/06/28 12:33:28;;;;;;;13.32;6.88;;;;;;;;;;5062547;28;20208;-77
2023/06/28 12:35:53;;;;;;;11.85;7.07;;;;;;;;;;5044860;28;20235;-76
2023/06/28 12:38:19;;;;;;;13.85;6.50;;;;;;;;;;5060553;28;20228;-80
2023/06/28 12:40:44;;;;;;;9.63;6.60;;;;;;;;;;5042099;28;20717;-76
2023/06/28 12:43:13;;;;;;;11.80;6.55;;;;;;;;;;5044845;28;20256;-77
2023/06/28 12:45:43;;;;;;;12.88;6.20;;;;;;;;;;5058927;28;20243;-76
2023/06/28 12:48:09;;;;;;;9.70;5.70;;;;;;;;;;5059742;28;20249;-76
2023/06/28 12:50:36;;;;;;;11.85;5.85;;;;;;;;;;5059944;28;20262;-76
2023/06/28 12:53:01;;;;;;;11.43;5.80;;;;;;;;;;5060824;28;20235;-77
2023/06/28 12:55:27;;;;;;;13.35;5.95;;;;;;;;;;5064749;28;20304;-76
2023/06/28 12:57:52;;;;;;;12.52;6.00;;;;;;;;;;5060754;28;20236;-77
2023/06/28 13:00:18;;;;;;;12.88;5.78;;;;;;;;;;5058954;28;20217;-78
2023/06/28 13:02:44;;;;;;;12.30;5.85;;;;;;;;;;5079026;28;20221;-76
2023/06/28 13:05:09;;;;;;;11.18;5.75;;;;;;;;;;5061920;28;20217;-75
2023/06/28 13:07:35;;;;;;;10.70;5.68;;;;;;;;;;5063664;28;20224;-75
2023/06/28 13:10:00;;;;;;;11.05;5.53;;;;;;;;;;5046853;28;20246;-77
2023/06/28 13:12:26;;;;;;;13.90;5.70;;;;;;;;;;5063129;28;20224;-76
2023/06/28 13:14:51;;;;;;;7.85;5.47;;;;;;;;;;5062465;28;20228;-76
2023/06/28 13:17:16;;;;;;;14.80;5.85;;;;;;;;;;5057290;28;20716;-76
2023/06/28 13:19:42;;;;;;;11.10;5.88;;;;;;;;;;5065009;28;20221;-76
2023/06/28 13:22:07;;;;;;;8.20;5.90;;;;;;;;;;5046086;28;20208;-76
2023/06/28 13:24:32;;;;;;;7.40;5.50;;;;;;;;;;5061760;28;20250;-76
2023/06/28 13:26:57;;;;;;;16.75;5.90;;;;;;;;;;5058811;28;20244;-76
2023/06/28 13:29:23;;;;;;;11.82;6.18;;;;;;;;;;5063713;28;20228;-77
2023/06/28 13:31:49;;;;;;;8.35;5.45;;;;;;;;;;5062511;28;20619;-75
2023/06/28 13:34:14;;;;;;;8.80;5.28;;;;;;;;;;5059054;28;20755;-76
2023/06/28 13:36:41;;;;;;;12.07;5.03;;;;;;;;;;5055273;28;20247;-77
2023/06/28 13:39:06;;;;;;;10.23;5.30;;;;;;;;;;5047563;28;20340;-76
2023/06/28 13:41:31;;;;;;;7.88;4.93;;;;;;;;;;5063901;28;21089;-76
2023/06/28 13:43:57;;;;;;;12.95;5.30;;;;;;;;;;5048260;28;20710;-77
2023/06/28 13:46:22;;;;;;;9.48;5.22;;;;;;;;;;5045184;28;20229;-77
2023/06/28 13:48:47;;;;;;;11.20;5.43;;;;;;;;;;5059353;28;20224;-76
2023/06/28 13:51:13;;;;;;;9.68;5.25;;;;;;;;;;5044631;28;20675;-76
2023/06/28 13:53:38;;;;;;;12.18;5.15;;;;;;;;;;5063775;28;20228;-77
2023/06/28 13:56:03;;;;;;;10.25;4.60;;;;;;;;;;5061081;28;20216;-77
2023/06/28 13:58:29;;;;;;;7.75;4.68;;;;;;;;;;5065017;28;20242;-79
2023/06/28 14:00:56;;;;;;;10.60;4.72;;;;;;;;;;5064497;28;20217;-77
2023/06/28 14:03:22;;;;;;;12.30;4.75;;;;;;;;;;5041947;28;20236;-78
2023/06/28 14:05:47;;;;;;;12.57;4.78;;;;;;;;;;5045319;28;20291;-75
2023/06/28 14:08:13;;;;;;;12.43;4.70;;;;;;;;;;5074186;28;20342;-75
2023/06/28 14:10:38;;;;;;;8.60;4.30;;;;;;;;;;5062741;28;20221;-75
2023/06/28 14:13:04;;;;;;;11.02;4.60;;;;;;;;;;5079478;28;20240;-76